createdAt,value
2023-10-31T00:00:27.800Z,13.02
2023-10-31T00:02:54.940Z,12.96
2023-10-31T00:05:22.248Z,12.82
2023-10-31T00:07:49.437Z,12.78
2023-10-31T00:10:16.790Z,12.74
2023-10-31T00:12:43.791Z,12.72
2023-10-31T00:15:11.152Z,12.72
2023-10-31T00:17:39.679Z,12.69
2023-10-31T00:20:07.994Z,12.68
2023-10-31T00:22:35.278Z,12.65
2023-10-31T00:25:02.313Z,12.67
2023-10-31T00:27:29.312Z,12.65
2023-10-31T00:29:56.257Z,12.60
2023-10-31T00:32:23.469Z,12.56
2023-10-31T00:34:51.930Z,12.55
2023-10-31T00:37:19.006Z,12.51
2023-10-31T00:39:45.980Z,12.49
2023-10-31T00:42:13.027Z,12.43
2023-10-31T00:44:40.071Z,12.36
2023-10-31T00:47:07.203Z,12.30
2023-10-31T00:49:34.206Z,12.26
2023-10-31T00:52:02.666Z,12.16
2023-10-31T00:54:29.725Z,12.13
2023-10-31T00:56:56.716Z,12.16
2023-10-31T00:59:23.840Z,12.19
2023-10-31T01:01:50.838Z,12.21
2023-10-31T01:04:18.286Z,12.20
2023-10-31T01:06:45.305Z,12.17
2023-10-31T01:09:14.541Z,12.14
2023-10-31T01:11:41.540Z,12.09
2023-10-31T01:14:08.562Z,12.10
2023-10-31T01:16:35.599Z,12.08
2023-10-31T01:19:02.622Z,12.04
2023-10-31T01:21:29.699Z,12.01
2023-10-31T01:23:56.732Z,11.96
2023-10-31T01:26:26.043Z,11.93
2023-10-31T01:28:53.131Z,11.94
2023-10-31T01:31:20.132Z,11.97
2023-10-31T01:33:47.378Z,11.85
2023-10-31T01:36:15.605Z,11.76
2023-10-31T01:38:42.633Z,11.76
2023-10-31T01:41:09.753Z,11.73
2023-10-31T01:43:39.510Z,11.66
2023-10-31T01:46:06.971Z,11.59
2023-10-31T01:48:35.300Z,11.56
2023-10-31T01:51:08.678Z,11.53
2023-10-31T01:53:36.653Z,11.46
2023-10-31T01:56:05.514Z,11.40
2023-10-31T01:58:35.130Z,11.39
2023-10-31T02:01:05.298Z,11.37
2023-10-31T02:03:32.783Z,11.31
2023-10-31T02:06:00.279Z,11.26
2023-10-31T02:08:27.260Z,11.22
2023-10-31T02:10:54.274Z,11.17
2023-10-31T02:13:21.299Z,11.06
2023-10-31T02:15:48.497Z,10.99
2023-10-31T02:18:17.248Z,10.93
2023-10-31T02:20:44.772Z,10.95
2023-10-31T02:23:16.371Z,10.96
2023-10-31T02:25:43.438Z,10.95
2023-10-31T02:28:10.489Z,10.89
2023-10-31T02:30:37.801Z,10.86
2023-10-31T02:33:04.958Z,10.82
2023-10-31T02:35:32.169Z,10.80
2023-10-31T02:37:59.195Z,10.77
2023-10-31T02:40:27.705Z,10.78
2023-10-31T02:42:54.693Z,10.80
2023-10-31T02:45:21.896Z,10.82
2023-10-31T02:47:48.946Z,10.81
2023-10-31T02:50:16.165Z,10.76
2023-10-31T02:52:43.182Z,10.79
2023-10-31T02:55:10.399Z,10.77
2023-10-31T02:57:38.821Z,10.77
2023-10-31T03:00:08.375Z,10.76
2023-10-31T03:02:35.384Z,10.68
2023-10-31T03:05:03.189Z,10.67
2023-10-31T03:07:30.258Z,10.72
2023-10-31T03:09:57.314Z,10.74
2023-10-31T03:12:25.311Z,10.73
2023-10-31T03:14:53.822Z,10.72
2023-10-31T03:17:21.271Z,10.72
2023-10-31T03:19:48.367Z,10.73
2023-10-31T03:22:15.394Z,10.72
2023-10-31T03:24:42.381Z,10.68
2023-10-31T03:27:09.379Z,10.63
2023-10-31T03:29:36.981Z,10.63
2023-10-31T03:32:06.352Z,10.66
2023-10-31T03:34:33.474Z,10.64
2023-10-31T03:37:00.689Z,10.61
2023-10-31T03:39:28.247Z,10.63
2023-10-31T03:41:55.667Z,10.64
2023-10-31T03:44:25.346Z,10.61
2023-10-31T03:46:52.642Z,10.60
2023-10-31T03:49:21.066Z,10.60
2023-10-31T03:51:48.093Z,10.53
2023-10-31T03:54:15.129Z,10.47
2023-10-31T03:56:43.814Z,10.46
2023-10-31T03:59:11.130Z,10.47
2023-10-31T04:01:38.257Z,10.47
2023-10-31T04:04:05.826Z,10.38
2023-10-31T04:06:34.177Z,10.38
2023-10-31T04:09:01.474Z,10.36
2023-10-31T04:11:28.746Z,10.38
2023-10-31T04:13:55.838Z,10.32
2023-10-31T04:16:22.912Z,10.24
2023-10-31T04:18:50.021Z,10.17
2023-10-31T04:21:17.160Z,10.12
2023-10-31T04:23:45.615Z,10.05
2023-10-31T04:26:12.604Z,10.03
2023-10-31T04:28:40.385Z,10.04
2023-10-31T04:31:07.491Z,10.02
2023-10-31T04:33:34.558Z,10.02
2023-10-31T04:36:03.402Z,9.99
2023-10-31T04:38:30.572Z,9.99
2023-10-31T04:40:59.025Z,9.99
2023-10-31T04:43:26.302Z,9.87
2023-10-31T04:45:53.346Z,9.85
2023-10-31T04:48:20.643Z,9.86
2023-10-31T04:50:47.797Z,9.89
2023-10-31T04:53:14.820Z,9.81
2023-10-31T04:55:41.891Z,9.76
2023-10-31T04:58:10.253Z,9.76
2023-10-31T05:00:37.221Z,9.75
2023-10-31T05:03:04.300Z,9.71
2023-10-31T05:05:31.423Z,9.74
2023-10-31T05:07:59.358Z,9.80
2023-10-31T05:10:27.560Z,9.82
2023-10-31T05:12:55.136Z,9.87
2023-10-31T05:15:23.500Z,9.97
2023-10-31T05:17:50.563Z,10.43
2023-10-31T05:20:17.802Z,11.15
2023-10-31T05:22:44.826Z,11.90
2023-10-31T05:25:12.221Z,12.62
2023-10-31T05:27:40.400Z,13.25
2023-10-31T05:30:08.411Z,13.79
2023-10-31T05:32:36.963Z,14.32
2023-10-31T05:35:04.623Z,14.76
2023-10-31T05:37:31.654Z,15.16
2023-10-31T05:39:58.682Z,15.45
2023-10-31T05:42:26.579Z,15.71
2023-10-31T05:44:53.548Z,15.96
2023-10-31T05:47:20.584Z,16.19
2023-10-31T05:49:49.010Z,16.44
2023-10-31T05:52:16.003Z,16.60
2023-10-31T05:54:42.989Z,16.63
2023-10-31T05:57:09.949Z,16.55
2023-10-31T05:59:36.895Z,16.62
2023-10-31T06:02:04.290Z,16.79
2023-10-31T06:04:31.259Z,16.91
2023-10-31T06:07:00.015Z,17.09
2023-10-31T06:09:26.969Z,17.25
2023-10-31T06:11:54.002Z,17.44
2023-10-31T06:14:21.064Z,17.68
2023-10-31T06:16:48.137Z,17.90
2023-10-31T06:19:15.125Z,18.11
2023-10-31T06:21:42.126Z,18.33
2023-10-31T06:24:11.175Z,18.57
2023-10-31T06:26:38.158Z,18.82
2023-10-31T06:29:27.300Z,19.06
2023-10-31T06:31:52.339Z,19.36
2023-10-31T06:34:20.266Z,19.53
2023-10-31T06:36:47.264Z,19.72
2023-10-31T06:39:15.608Z,20.02
2023-10-31T06:41:42.661Z,20.28
2023-10-31T06:44:09.724Z,20.52
2023-10-31T06:46:36.704Z,20.69
2023-10-31T06:49:04.168Z,20.90
2023-10-31T06:51:31.220Z,21.07
2023-10-31T06:53:58.349Z,21.27
2023-10-31T06:56:29.744Z,21.50
2023-10-31T06:58:56.858Z,21.73
2023-10-31T07:01:23.846Z,21.85
2023-10-31T07:03:51.498Z,22.03
2023-10-31T07:06:18.526Z,22.31
2023-10-31T07:08:45.517Z,22.53
2023-10-31T07:11:12.588Z,22.62
2023-10-31T07:13:41.122Z,22.64
2023-10-31T07:16:08.775Z,22.81
2023-10-31T07:18:35.793Z,23.01
2023-10-31T07:21:03.045Z,23.14
2023-10-31T07:23:30.020Z,23.36
2023-10-31T07:25:57.034Z,23.64
2023-10-31T07:28:24.264Z,23.74
2023-10-31T07:30:52.785Z,23.83
2023-10-31T07:33:19.892Z,24.01
2023-10-31T07:35:46.875Z,24.30
2023-10-31T07:38:13.949Z,24.63
2023-10-31T07:40:40.999Z,24.96
2023-10-31T07:43:07.968Z,25.28
2023-10-31T07:45:34.934Z,25.57
2023-10-31T07:48:03.449Z,25.83
2023-10-31T07:50:30.583Z,26.06
2023-10-31T07:52:57.569Z,26.16
2023-10-31T07:55:24.592Z,26.34
2023-10-31T07:57:51.652Z,26.52
2023-10-31T08:00:19.428Z,26.72
2023-10-31T08:02:46.578Z,26.87
2023-10-31T08:05:15.823Z,27.02
2023-10-31T08:07:42.808Z,27.14
2023-10-31T08:10:10.404Z,27.28
2023-10-31T08:12:37.452Z,27.52
2023-10-31T08:15:05.348Z,27.71
2023-10-31T08:17:32.506Z,27.90
2023-10-31T08:19:59.598Z,28.11
2023-10-31T08:22:27.993Z,28.29
2023-10-31T08:24:55.065Z,28.20
2023-10-31T08:27:22.681Z,27.97
2023-10-31T08:29:49.653Z,27.85
2023-10-31T08:32:17.435Z,28.12
2023-10-31T08:34:44.496Z,28.26
2023-10-31T08:37:11.537Z,28.51
2023-10-31T08:39:41.130Z,28.67
2023-10-31T08:42:08.143Z,28.81
2023-10-31T08:44:35.330Z,28.91
2023-10-31T08:47:02.339Z,29.18
2023-10-31T08:49:29.373Z,29.47
2023-10-31T08:51:56.531Z,29.73
2023-10-31T08:54:23.442Z,30.02
2023-10-31T08:56:51.760Z,30.27
2023-10-31T08:59:18.795Z,30.46
2023-10-31T09:01:45.850Z,30.69
2023-10-31T09:04:13.116Z,30.90
2023-10-31T09:06:40.093Z,31.08
2023-10-31T09:09:07.147Z,31.24
2023-10-31T09:11:34.161Z,31.38
2023-10-31T09:14:02.670Z,31.39
2023-10-31T09:16:29.681Z,31.57
2023-10-31T09:18:56.671Z,31.80
2023-10-31T09:21:23.837Z,31.95
2023-10-31T09:23:50.805Z,31.90
2023-10-31T09:26:19.128Z,31.74
2023-10-31T09:28:51.210Z,31.75
2023-10-31T09:31:20.347Z,31.97
2023-10-31T09:33:47.702Z,32.26
2023-10-31T09:36:15.747Z,32.35
2023-10-31T09:38:43.183Z,32.35
2023-10-31T09:41:11.428Z,32.35
2023-10-31T09:43:38.850Z,32.42
2023-10-31T09:46:06.622Z,32.65
2023-10-31T09:48:35.797Z,32.89
2023-10-31T09:51:04.143Z,32.99
2023-10-31T09:53:33.013Z,32.77
2023-10-31T09:56:00.462Z,32.60
2023-10-31T09:58:27.673Z,32.70
2023-10-31T10:00:54.720Z,32.92
2023-10-31T10:03:22.491Z,33.10
2023-10-31T10:05:51.322Z,33.21
2023-10-31T10:08:18.550Z,33.20
2023-10-31T10:10:45.883Z,33.20
2023-10-31T10:13:13.990Z,33.05
2023-10-31T10:15:50.158Z,32.59
2023-10-31T10:18:26.904Z,32.55
2023-10-31T10:21:00.104Z,32.36
2023-10-31T10:23:28.476Z,32.06
2023-10-31T10:25:57.567Z,32.11
2023-10-31T10:28:27.778Z,32.46
2023-10-31T10:30:55.432Z,32.48
2023-10-31T10:33:23.585Z,32.42
2023-10-31T10:35:50.652Z,32.34
2023-10-31T10:38:20.410Z,32.36
2023-10-31T10:40:48.757Z,32.31
2023-10-31T10:43:22.364Z,32.24
2023-10-31T10:45:54.888Z,32.51
2023-10-31T10:48:23.111Z,32.42
2023-10-31T10:50:56.478Z,32.40
2023-10-31T10:53:26.720Z,32.47
2023-10-31T10:55:58.305Z,32.53
2023-10-31T10:58:33.413Z,32.50
2023-10-31T11:01:00.642Z,32.14
2023-10-31T11:03:29.283Z,32.00
2023-10-31T11:05:56.889Z,32.15
2023-10-31T11:08:28.815Z,32.15
2023-10-31T11:10:57.157Z,32.20
2023-10-31T11:13:26.025Z,32.09
2023-10-31T11:15:58.734Z,32.06
2023-10-31T11:18:26.928Z,32.13
2023-10-31T11:20:54.372Z,31.94
2023-10-31T11:23:21.753Z,31.69
2023-10-31T11:25:56.069Z,31.55
2023-10-31T11:28:22.863Z,31.68
2023-10-31T11:30:51.023Z,31.68
2023-10-31T11:33:21.785Z,31.70
2023-10-31T11:35:51.668Z,31.62
2023-10-31T11:38:33.482Z,31.55
2023-10-31T11:41:03.713Z,31.40
2023-10-31T11:43:37.988Z,31.36
2023-10-31T11:46:05.141Z,31.24
2023-10-31T11:48:47.048Z,31.29
2023-10-31T11:51:14.708Z,31.24
2023-10-31T11:53:42.246Z,31.18
2023-10-31T11:56:21.687Z,31.16
2023-10-31T11:58:57.200Z,31.18
2023-10-31T12:01:24.339Z,31.14
2023-10-31T12:03:51.659Z,31.11
2023-10-31T12:06:20.083Z,31.07
2023-10-31T12:08:48.616Z,30.96
2023-10-31T12:11:21.131Z,30.81
2023-10-31T12:13:57.995Z,30.72
2023-10-31T12:16:27.044Z,30.66
2023-10-31T12:18:58.719Z,30.47
2023-10-31T12:21:39.965Z,30.46
2023-10-31T12:24:08.616Z,30.50
2023-10-31T12:26:36.292Z,30.48
2023-10-31T12:29:15.718Z,30.48
2023-10-31T12:31:46.826Z,30.52
2023-10-31T12:34:15.232Z,30.53
2023-10-31T12:36:42.611Z,30.55
2023-10-31T12:39:12.803Z,30.54
2023-10-31T12:41:41.222Z,30.45
2023-10-31T12:44:14.405Z,30.39
2023-10-31T12:46:43.449Z,30.25
2023-10-31T12:49:14.784Z,30.16
2023-10-31T12:51:57.018Z,30.09
2023-10-31T12:54:29.696Z,30.13
2023-10-31T12:57:00.932Z,30.16
2023-10-31T12:59:29.078Z,30.13
2023-10-31T13:02:01.121Z,30.03
2023-10-31T13:04:29.326Z,29.98
2023-10-31T13:06:58.545Z,29.92
2023-10-31T13:09:29.771Z,29.89
2023-10-31T13:11:59.857Z,29.81
2023-10-31T13:14:26.844Z,29.79
2023-10-31T13:16:53.980Z,29.75
2023-10-31T13:19:22.476Z,29.63
2023-10-31T13:21:49.629Z,29.58
2023-10-31T13:24:16.878Z,29.52
2023-10-31T13:26:45.827Z,29.50
2023-10-31T13:29:14.099Z,29.41
2023-10-31T13:31:41.990Z,29.32
2023-10-31T13:34:08.965Z,29.19
2023-10-31T13:36:38.332Z,29.11
2023-10-31T13:39:05.362Z,28.96
2023-10-31T13:41:32.712Z,28.86
2023-10-31T13:44:00.154Z,28.80
2023-10-31T13:46:27.308Z,28.73
2023-10-31T13:48:54.340Z,28.60
2023-10-31T13:51:22.905Z,28.46
2023-10-31T13:53:51.414Z,28.40
2023-10-31T13:56:18.649Z,28.28
2023-10-31T13:58:45.885Z,28.17
2023-10-31T14:01:12.930Z,28.03
2023-10-31T14:03:40.119Z,27.86
2023-10-31T14:06:07.871Z,27.72
2023-10-31T14:08:35.075Z,27.61
2023-10-31T14:11:04.200Z,27.45
2023-10-31T14:13:31.309Z,27.32
2023-10-31T14:15:58.317Z,27.14
2023-10-31T14:18:25.351Z,27.02
2023-10-31T14:20:53.153Z,26.88
2023-10-31T14:23:20.266Z,26.72
2023-10-31T14:25:47.325Z,26.61
2023-10-31T14:28:15.892Z,26.49
2023-10-31T14:30:42.900Z,26.36
2023-10-31T14:33:10.058Z,26.27
2023-10-31T14:35:37.089Z,26.14
2023-10-31T14:38:04.525Z,26.02
2023-10-31T14:40:31.723Z,25.92
2023-10-31T14:42:58.857Z,25.80
2023-10-31T14:45:27.439Z,25.69
2023-10-31T14:47:54.885Z,25.57
2023-10-31T14:50:22.165Z,25.47
2023-10-31T14:52:49.162Z,25.37
2023-10-31T14:55:16.528Z,25.26
2023-10-31T14:57:43.518Z,25.09
2023-10-31T15:00:13.226Z,24.93
2023-10-31T15:02:41.679Z,24.76
2023-10-31T15:05:09.949Z,24.66
2023-10-31T15:07:37.082Z,24.53
2023-10-31T15:10:04.460Z,24.41
2023-10-31T15:12:31.513Z,24.32
2023-10-31T15:14:58.509Z,24.27
2023-10-31T15:17:25.564Z,24.15
2023-10-31T15:19:54.058Z,24.07
2023-10-31T15:22:21.057Z,23.99
2023-10-31T15:24:48.093Z,23.92
2023-10-31T15:27:18.720Z,23.78
2023-10-31T15:29:46.019Z,23.67
2023-10-31T15:32:13.193Z,23.59
2023-10-31T15:34:42.035Z,23.45
2023-10-31T15:37:12.985Z,23.32
2023-10-31T15:39:43.313Z,23.16
2023-10-31T15:42:10.593Z,23.05
2023-10-31T15:44:41.163Z,22.99
2023-10-31T15:47:08.589Z,22.91
2023-10-31T15:49:37.244Z,22.88
2023-10-31T15:52:04.736Z,22.84
2023-10-31T15:54:34.056Z,22.79
2023-10-31T15:57:01.208Z,22.76
2023-10-31T15:59:28.353Z,22.78
2023-10-31T16:01:55.503Z,22.80
2023-10-31T16:04:24.845Z,22.80
2023-10-31T16:06:51.981Z,22.74
2023-10-31T16:09:19.078Z,22.68
2023-10-31T16:11:50.638Z,22.66
2023-10-31T16:14:23.068Z,22.63
2023-10-31T16:16:50.534Z,22.58
2023-10-31T16:19:17.860Z,22.50
2023-10-31T16:21:44.853Z,22.39
2023-10-31T16:24:12.134Z,22.23
2023-10-31T16:26:39.383Z,22.07
2023-10-31T16:29:14.881Z,21.99
2023-10-31T16:31:42.139Z,21.89
2023-10-31T16:34:09.118Z,21.85
2023-10-31T16:36:36.120Z,21.82
2023-10-31T16:39:03.600Z,21.81
2023-10-31T16:41:30.800Z,21.74
2023-10-31T16:43:57.898Z,21.68
2023-10-31T16:46:26.269Z,21.57
2023-10-31T16:48:53.247Z,21.59
2023-10-31T16:51:21.252Z,21.60
2023-10-31T16:53:49.103Z,21.51
2023-10-31T16:56:16.969Z,21.39
2023-10-31T16:58:46.823Z,21.29
2023-10-31T17:01:14.234Z,21.21
2023-10-31T17:03:42.942Z,21.12
2023-10-31T17:06:11.699Z,21.11
2023-10-31T17:08:40.551Z,21.12
2023-10-31T17:11:08.098Z,21.14
2023-10-31T17:13:35.532Z,21.13
2023-10-31T17:16:03.727Z,21.05
2023-10-31T17:18:31.649Z,20.99
2023-10-31T17:21:00.683Z,20.91
2023-10-31T17:23:28.198Z,20.87
2023-10-31T17:25:55.176Z,20.81
2023-10-31T17:28:22.229Z,20.75
2023-10-31T17:30:49.289Z,20.73
2023-10-31T17:33:16.550Z,20.67
2023-10-31T17:35:43.713Z,20.64
2023-10-31T17:38:12.301Z,20.59
2023-10-31T17:40:39.418Z,20.52
2023-10-31T17:43:06.611Z,20.46
2023-10-31T17:45:33.740Z,20.41
2023-10-31T17:48:00.993Z,20.34
2023-10-31T17:50:33.087Z,20.27
2023-10-31T17:53:00.462Z,20.19
2023-10-31T17:55:29.561Z,20.12
2023-10-31T17:57:56.778Z,20.06
2023-10-31T18:00:23.809Z,20.02
2023-10-31T18:02:51.057Z,19.93
2023-10-31T18:05:18.256Z,19.90
2023-10-31T18:07:45.347Z,19.85
2023-10-31T18:10:12.354Z,19.83
2023-10-31T18:12:40.685Z,19.81
2023-10-31T18:15:09.400Z,19.77
2023-10-31T18:17:36.441Z,19.73
2023-10-31T18:20:03.990Z,19.71
2023-10-31T18:22:30.986Z,19.66
2023-10-31T18:24:57.960Z,19.61
2023-10-31T18:27:25.439Z,19.56
2023-10-31T18:29:54.760Z,19.49
2023-10-31T18:32:23.141Z,19.45
2023-10-31T18:34:50.308Z,19.39
2023-10-31T18:37:17.675Z,19.33
2023-10-31T18:39:44.967Z,19.31
2023-10-31T18:42:15.714Z,19.27
2023-10-31T18:44:49.767Z,19.21
2023-10-31T18:47:24.769Z,19.10
2023-10-31T18:49:52.094Z,19.02
2023-10-31T18:52:19.289Z,18.97
2023-10-31T18:54:46.332Z,18.91
2023-10-31T18:57:13.659Z,18.84
2023-10-31T18:59:40.670Z,18.81
2023-10-31T19:02:07.711Z,18.73
2023-10-31T19:04:36.154Z,18.67
2023-10-31T19:07:03.302Z,18.66
2023-10-31T19:09:30.309Z,18.64
2023-10-31T19:11:57.529Z,18.59
2023-10-31T19:14:24.555Z,18.54
2023-10-31T19:16:51.770Z,18.50
2023-10-31T19:19:19.178Z,18.44
2023-10-31T19:21:47.650Z,18.38
2023-10-31T19:24:14.741Z,18.32
2023-10-31T19:26:43.343Z,18.25
2023-10-31T19:29:10.483Z,18.21
2023-10-31T19:31:37.599Z,18.17
2023-10-31T19:34:04.682Z,18.14
2023-10-31T19:36:31.750Z,18.09
2023-10-31T19:39:00.144Z,17.99
2023-10-31T19:41:30.947Z,17.91
2023-10-31T19:43:58.265Z,17.78
2023-10-31T19:46:27.599Z,17.69
2023-10-31T19:48:57.255Z,17.64
2023-10-31T19:51:24.280Z,17.56
2023-10-31T19:53:51.413Z,17.52
2023-10-31T19:56:20.444Z,17.51
2023-10-31T19:58:48.214Z,17.51
2023-10-31T20:01:15.561Z,17.49
2023-10-31T20:03:42.885Z,17.43
2023-10-31T20:06:10.459Z,17.35
2023-10-31T20:08:37.821Z,17.27
2023-10-31T20:11:05.861Z,17.24
2023-10-31T20:13:34.317Z,17.19
2023-10-31T20:16:01.617Z,17.14
2023-10-31T20:18:30.342Z,17.09
2023-10-31T20:20:57.533Z,17.03
2023-10-31T20:23:24.593Z,16.98
2023-10-31T20:25:52.663Z,16.92
2023-10-31T20:28:19.814Z,16.88
2023-10-31T20:30:48.412Z,16.84
2023-10-31T20:33:15.753Z,16.83
2023-10-31T20:35:43.023Z,16.81
2023-10-31T20:38:10.053Z,16.82
2023-10-31T20:40:37.763Z,16.80
2023-10-31T20:43:04.717Z,16.80
2023-10-31T20:45:31.877Z,16.84
2023-10-31T20:48:00.348Z,16.87
2023-10-31T20:50:27.459Z,16.90
2023-10-31T20:52:54.669Z,16.89
2023-10-31T20:55:21.621Z,16.90
2023-10-31T20:57:48.606Z,16.90
2023-10-31T21:00:18.553Z,16.89
2023-10-31T21:02:46.572Z,16.82
2023-10-31T21:05:15.297Z,16.77
2023-10-31T21:07:42.391Z,16.73
2023-10-31T21:10:10.002Z,16.68
2023-10-31T21:12:37.337Z,16.66
2023-10-31T21:15:08.036Z,16.64
2023-10-31T21:17:35.194Z,16.64
2023-10-31T21:20:02.261Z,16.62
2023-10-31T21:22:31.630Z,16.61
2023-10-31T21:24:59.775Z,16.57
2023-10-31T21:27:26.794Z,16.53
2023-10-31T21:29:54.237Z,16.49
2023-10-31T21:32:21.597Z,16.50
2023-10-31T21:34:48.694Z,16.47
2023-10-31T21:37:15.730Z,16.45
2023-10-31T21:39:44.131Z,16.48
2023-10-31T21:42:11.258Z,16.49
2023-10-31T21:44:38.314Z,16.50
2023-10-31T21:47:05.906Z,16.54
2023-10-31T21:49:32.930Z,16.53
2023-10-31T21:51:59.937Z,16.46
2023-10-31T21:54:26.997Z,16.37
2023-10-31T21:56:55.398Z,16.35
2023-10-31T21:59:23.919Z,16.40
2023-10-31T22:01:50.957Z,16.40
2023-10-31T22:04:18.441Z,16.42
2023-10-31T22:06:45.448Z,16.44
2023-10-31T22:09:13.068Z,16.41
2023-10-31T22:11:40.131Z,16.40
2023-10-31T22:14:09.529Z,16.39
2023-10-31T22:16:36.638Z,16.37
2023-10-31T22:19:05.399Z,16.39
2023-10-31T22:21:32.399Z,16.38
2023-10-31T22:23:59.588Z,16.37
2023-10-31T22:26:26.876Z,16.37
2023-10-31T22:28:53.878Z,16.41
2023-10-31T22:31:22.408Z,16.51
2023-10-31T22:33:50.020Z,16.59
2023-10-31T22:36:17.049Z,16.64
2023-10-31T22:38:44.008Z,16.72
2023-10-31T22:41:11.061Z,16.75
2023-10-31T22:43:38.280Z,16.81
2023-10-31T22:46:07.764Z,16.80
2023-10-31T22:48:36.146Z,16.81
2023-10-31T22:51:03.736Z,16.81
2023-10-31T22:53:31.403Z,16.81
2023-10-31T22:55:59.381Z,16.76
2023-10-31T22:58:26.511Z,16.71
2023-10-31T23:00:53.579Z,16.67
2023-10-31T23:03:20.783Z,16.61
2023-10-31T23:05:50.171Z,16.55
2023-10-31T23:08:17.323Z,16.51
2023-10-31T23:10:44.461Z,16.50
2023-10-31T23:13:11.482Z,16.50
2023-10-31T23:15:38.529Z,16.48
2023-10-31T23:18:07.061Z,16.48
2023-10-31T23:20:34.225Z,16.46
2023-10-31T23:23:02.843Z,16.42
2023-10-31T23:25:30.742Z,16.39
2023-10-31T23:27:57.803Z,16.41
2023-10-31T23:30:24.944Z,16.36
2023-10-31T23:32:52.681Z,16.36
2023-10-31T23:35:19.861Z,16.32
2023-10-31T23:37:47.071Z,16.29
2023-10-31T23:40:15.462Z,16.29
2023-10-31T23:42:42.527Z,16.32
2023-10-31T23:45:10.496Z,16.29
2023-10-31T23:47:38.020Z,16.29
2023-10-31T23:50:05.735Z,16.30
2023-10-31T23:52:32.917Z,16.27
2023-10-31T23:55:00.447Z,16.28
2023-10-31T23:57:31.259Z,16.27
2023-10-31T23:59:59.304Z,16.26
